createdAt,value
2018-01-06T00:00:11.542Z,4.50
2018-01-06T00:01:11.516Z,4.20
2018-01-06T00:02:11.542Z,4.70
2018-01-06T00:03:11.461Z,4.90
2018-01-06T00:04:11.453Z,4.40
2018-01-06T00:05:11.412Z,4.90
2018-01-06T00:06:11.466Z,3.90
2018-01-06T00:07:11.359Z,4.50
2018-01-06T00:08:11.374Z,4.30
2018-01-06T00:09:11.304Z,4.70
2018-01-06T00:10:11.389Z,4.50
2018-01-06T00:11:11.255Z,3.80
2018-01-06T00:12:11.295Z,3.60
2018-01-06T00:13:11.303Z,4.20
2018-01-06T00:14:11.179Z,4.30
2018-01-06T00:15:11.214Z,4.30
2018-01-06T00:16:11.127Z,4.50
2018-01-06T00:17:11.125Z,4.30
2018-01-06T00:18:11.074Z,4.30
2018-01-06T00:19:11.042Z,4.40
2018-01-06T00:20:11.039Z,4.50
2018-01-06T00:21:10.993Z,4.80
2018-01-06T00:22:11.048Z,4.80
2018-01-06T00:23:10.937Z,4.60
2018-01-06T00:24:10.967Z,4.60
2018-01-06T00:25:10.892Z,4.30
2018-01-06T00:26:10.972Z,4.10
2018-01-06T00:27:10.835Z,4.30
2018-01-06T00:28:10.884Z,4.80
2018-01-06T00:29:10.888Z,4.20
2018-01-06T00:30:10.760Z,4.00
2018-01-06T00:31:10.802Z,4.60
2018-01-06T00:32:10.725Z,4.30
2018-01-06T00:33:10.714Z,4.30
2018-01-06T00:34:10.660Z,4.40
2018-01-06T00:35:10.623Z,4.60
2018-01-06T00:36:10.607Z,4.10
2018-01-06T00:37:10.631Z,4.50
2018-01-06T00:38:10.546Z,4.50
2018-01-06T00:39:10.541Z,4.10
2018-01-06T00:40:10.499Z,4.30
2018-01-06T00:41:10.470Z,3.80
2018-01-06T00:42:10.456Z,4.10
2018-01-06T00:43:10.418Z,4.70
2018-01-06T00:44:10.468Z,4.50
2018-01-06T00:45:10.476Z,3.70
2018-01-06T00:46:10.337Z,4.50
2018-01-06T00:47:10.386Z,4.20
2018-01-06T00:48:10.292Z,4.20
2018-01-06T00:49:10.294Z,4.00
2018-01-06T00:50:10.295Z,4.30
2018-01-06T00:51:10.206Z,4.00
2018-01-06T00:52:10.212Z,4.30
2018-01-06T00:53:10.151Z,4.00
2018-01-06T00:54:10.225Z,4.10
2018-01-06T00:55:10.101Z,4.00
2018-01-06T00:56:10.134Z,3.90
2018-01-06T00:57:10.048Z,3.80
2018-01-06T00:58:10.046Z,4.10
2018-01-06T00:59:09.999Z,4.50
2018-01-06T01:00:09.973Z,4.40
2018-01-06T01:01:09.946Z,4.10
2018-01-06T01:02:09.966Z,4.40
2018-01-06T01:03:09.892Z,3.60
2018-01-06T01:04:09.977Z,4.40
2018-01-06T01:05:09.837Z,3.90
2018-01-06T01:06:09.888Z,4.30
2018-01-06T01:07:09.791Z,3.60
2018-01-06T01:08:09.797Z,3.90
2018-01-06T01:09:09.739Z,3.80
2018-01-06T01:10:09.708Z,3.90
2018-01-06T01:11:09.687Z,3.90
2018-01-06T01:12:09.724Z,4.00
2018-01-06T01:13:09.636Z,3.80
2018-01-06T01:14:09.628Z,4.20
2018-01-06T01:15:09.612Z,3.60
2018-01-06T01:16:09.564Z,3.50
2018-01-06T01:17:09.546Z,3.60
2018-01-06T01:18:09.505Z,3.70
2018-01-06T01:19:09.560Z,3.70
2018-01-06T01:20:09.452Z,4.10
2018-01-06T01:21:09.418Z,4.00
2018-01-06T01:22:09.475Z,3.70
2018-01-06T01:23:09.371Z,3.80
2018-01-06T01:24:09.380Z,3.50
2018-01-06T01:25:09.316Z,4.10
2018-01-06T01:26:09.294Z,3.60
2018-01-06T01:27:09.269Z,3.50
2018-01-06T01:28:09.304Z,3.60
2018-01-06T01:29:09.214Z,3.70
2018-01-06T01:30:09.216Z,3.60
2018-01-06T01:31:09.164Z,3.60
2018-01-06T01:32:09.226Z,3.60
2018-01-06T01:33:09.107Z,3.90
2018-01-06T01:34:09.142Z,3.20
2018-01-06T01:35:09.059Z,3.60
2018-01-06T01:36:09.049Z,3.90
2018-01-06T01:37:09.012Z,3.70
2018-01-06T01:38:09.059Z,3.60
2018-01-06T01:39:08.947Z,3.40
2018-01-06T01:40:08.969Z,3.80
2018-01-06T01:41:08.898Z,3.60
2018-01-06T01:42:08.990Z,3.80
2018-01-06T01:43:08.844Z,3.80
2018-01-06T01:44:08.891Z,3.90
2018-01-06T01:45:08.792Z,3.60
2018-01-06T01:46:08.810Z,3.80
2018-01-06T01:47:08.742Z,3.70
2018-01-06T01:48:08.815Z,4.00
2018-01-06T01:49:08.700Z,3.80
2018-01-06T01:50:08.725Z,3.60
2018-01-06T01:51:08.661Z,4.00
2018-01-06T01:52:08.636Z,3.50
2018-01-06T01:53:08.580Z,3.70
2018-01-06T01:54:08.646Z,3.60
2018-01-06T01:55:08.542Z,3.40
2018-01-06T01:56:08.556Z,3.30
2018-01-06T01:57:08.483Z,3.70
2018-01-06T01:58:08.566Z,3.60
2018-01-06T01:59:08.430Z,3.50
2018-01-06T02:00:08.400Z,3.80
2018-01-06T02:01:08.503Z,3.40
2018-01-06T02:02:08.349Z,3.70
2018-01-06T02:03:09.419Z,3.70
2018-01-06T02:04:08.294Z,4.10
2018-01-06T02:05:08.303Z,3.70
2018-01-06T02:06:08.243Z,3.30
2018-01-06T02:07:08.316Z,3.60
2018-01-06T02:08:08.191Z,3.60
2018-01-06T02:09:08.226Z,3.50
2018-01-06T02:10:08.144Z,3.50
2018-01-06T02:11:08.146Z,3.90
2018-01-06T02:12:08.089Z,3.70
2018-01-06T02:13:08.152Z,3.80
2018-01-06T02:14:08.034Z,4.40
2018-01-06T02:15:08.059Z,3.70
2018-01-06T02:16:08.064Z,3.60
2018-01-06T02:17:07.962Z,3.70
2018-01-06T02:18:07.974Z,3.70
2018-01-06T02:19:07.910Z,4.00
2018-01-06T02:20:07.988Z,3.60
2018-01-06T02:21:07.853Z,4.00
2018-01-06T02:22:07.824Z,3.60
2018-01-06T02:23:07.901Z,3.70
2018-01-06T02:24:07.777Z,3.80
2018-01-06T02:25:07.812Z,3.70
2018-01-06T02:26:07.723Z,3.80
2018-01-06T02:27:07.694Z,4.00
2018-01-06T02:28:07.668Z,3.90
2018-01-06T02:29:07.732Z,3.80
2018-01-06T02:30:07.621Z,3.80
2018-01-06T02:31:07.645Z,3.90
2018-01-06T02:32:07.561Z,4.00
2018-01-06T02:33:07.554Z,3.90
2018-01-06T02:34:07.516Z,3.80
2018-01-06T02:35:07.486Z,3.80
2018-01-06T02:36:07.454Z,3.80
2018-01-06T02:37:07.477Z,4.10
2018-01-06T02:38:07.411Z,4.10
2018-01-06T02:39:07.488Z,3.60
2018-01-06T02:40:07.352Z,4.00
2018-01-06T02:41:07.329Z,3.70
2018-01-06T02:42:07.405Z,3.90
2018-01-06T02:43:07.316Z,3.50
2018-01-06T02:44:07.322Z,3.80
2018-01-06T02:45:07.224Z,3.60
2018-01-06T02:46:07.225Z,3.90
2018-01-06T02:47:07.230Z,4.10
2018-01-06T02:48:07.145Z,4.30
2018-01-06T02:49:07.141Z,4.00
2018-01-06T02:50:07.098Z,4.00
2018-01-06T02:51:07.156Z,4.30
2018-01-06T02:52:07.048Z,4.00
2018-01-06T02:53:07.065Z,3.70
2018-01-06T02:54:06.985Z,4.00
2018-01-06T02:55:07.078Z,4.10
2018-01-06T02:56:06.931Z,3.90
2018-01-06T02:57:06.985Z,3.50
2018-01-06T02:58:06.886Z,4.30
2018-01-06T02:59:06.894Z,4.00
2018-01-06T03:00:06.833Z,3.90
2018-01-06T03:01:06.907Z,4.20
2018-01-06T03:02:06.776Z,4.10
2018-01-06T03:03:06.817Z,3.50
2018-01-06T03:04:06.726Z,3.80
2018-01-06T03:05:06.729Z,4.00
2018-01-06T03:06:06.669Z,3.70
2018-01-06T03:07:06.738Z,3.80
2018-01-06T03:08:06.618Z,3.50
2018-01-06T03:09:06.649Z,3.60
2018-01-06T03:10:06.618Z,3.80
2018-01-06T03:11:06.555Z,3.80
2018-01-06T03:12:06.516Z,3.40
2018-01-06T03:13:06.572Z,3.60
2018-01-06T03:14:06.463Z,3.80
2018-01-06T03:15:06.478Z,3.60
2018-01-06T03:16:06.410Z,3.30
2018-01-06T03:17:06.495Z,3.40
2018-01-06T03:18:06.352Z,3.70
2018-01-06T03:19:06.401Z,3.50
2018-01-06T03:20:06.305Z,3.70
2018-01-06T03:21:06.277Z,3.30
2018-01-06T03:22:06.249Z,3.60
2018-01-06T03:23:06.327Z,3.50
2018-01-06T03:24:06.203Z,3.40
2018-01-06T03:25:06.238Z,3.30
2018-01-06T03:26:06.148Z,3.30
2018-01-06T03:27:06.125Z,3.60
2018-01-06T03:28:06.150Z,3.30
2018-01-06T03:29:06.067Z,3.70
2018-01-06T03:30:06.072Z,3.30
2018-01-06T03:31:06.020Z,3.20
2018-01-06T03:32:06.073Z,3.60
2018-01-06T03:33:05.961Z,3.40
2018-01-06T03:34:05.998Z,3.60
2018-01-06T03:35:05.989Z,3.90
2018-01-06T03:36:05.882Z,3.70
2018-01-06T03:37:05.898Z,3.30
2018-01-06T03:38:05.833Z,3.30
2018-01-06T03:39:05.912Z,3.50
2018-01-06T03:40:05.779Z,3.50
2018-01-06T03:41:05.755Z,3.50
2018-01-06T03:42:05.826Z,3.50
2018-01-06T03:43:05.701Z,3.40
2018-01-06T03:44:05.734Z,3.30
2018-01-06T03:45:05.648Z,3.20
2018-01-06T03:46:05.616Z,3.60
2018-01-06T03:47:05.659Z,3.00
2018-01-06T03:48:05.564Z,3.20
2018-01-06T03:49:05.563Z,3.60
2018-01-06T03:50:05.527Z,3.00
2018-01-06T03:51:05.491Z,2.80
2018-01-06T03:52:05.460Z,3.30
2018-01-06T03:53:05.484Z,2.90
2018-01-06T03:54:05.407Z,3.10
2018-01-06T03:55:05.497Z,3.50
2018-01-06T03:56:05.358Z,3.10
2018-01-06T03:57:05.332Z,3.30
2018-01-06T03:58:05.310Z,3.10
2018-01-06T03:59:05.317Z,3.00
2018-01-06T04:00:05.257Z,3.50
2018-01-06T04:01:05.326Z,3.40
2018-01-06T04:02:05.202Z,3.10
2018-01-06T04:03:05.172Z,3.10
2018-01-06T04:04:05.244Z,3.20
2018-01-06T04:05:05.125Z,2.90
2018-01-06T04:06:05.154Z,3.10
2018-01-06T04:07:05.067Z,3.20
2018-01-06T04:08:05.069Z,2.90
2018-01-06T04:09:05.081Z,3.40
2018-01-06T04:10:04.995Z,3.00
2018-01-06T04:11:04.982Z,3.10
2018-01-06T04:12:04.941Z,3.00
2018-01-06T04:13:06.016Z,3.00
2018-01-06T04:14:04.887Z,2.70
2018-01-06T04:15:04.868Z,2.90
2018-01-06T04:16:04.912Z,3.20
2018-01-06T04:17:04.813Z,3.00
2018-01-06T04:18:04.821Z,3.30
2018-01-06T04:19:04.759Z,2.80
2018-01-06T04:20:04.723Z,3.10
2018-01-06T04:21:04.703Z,3.10
2018-01-06T04:22:04.740Z,3.10
2018-01-06T04:23:04.648Z,2.80
2018-01-06T04:24:04.649Z,2.80
2018-01-06T04:25:04.596Z,3.10
2018-01-06T04:26:04.568Z,3.10
2018-01-06T04:27:04.566Z,2.80
2018-01-06T04:28:04.518Z,3.30
2018-01-06T04:29:04.581Z,3.20
2018-01-06T04:30:04.464Z,3.10
2018-01-06T04:31:04.488Z,2.90
2018-01-06T04:32:04.413Z,3.10
2018-01-06T04:33:04.501Z,2.80
2018-01-06T04:34:04.364Z,3.30
2018-01-06T04:35:04.414Z,3.10
2018-01-06T04:36:04.302Z,3.00
2018-01-06T04:37:04.319Z,2.80
2018-01-06T04:38:04.255Z,3.00
2018-01-06T04:39:04.333Z,3.10
2018-01-06T04:40:04.201Z,3.30
2018-01-06T04:41:04.242Z,3.50
2018-01-06T04:42:04.152Z,3.50
2018-01-06T04:43:04.165Z,3.00
2018-01-06T04:44:04.095Z,3.20
2018-01-06T04:45:04.164Z,2.90
2018-01-06T04:46:04.053Z,2.70
2018-01-06T04:47:04.076Z,3.10
2018-01-06T04:48:03.996Z,3.30
2018-01-06T04:49:03.984Z,3.10
2018-01-06T04:50:03.940Z,3.30
2018-01-06T04:51:03.994Z,3.20
2018-01-06T04:52:03.887Z,3.50
2018-01-06T04:53:03.906Z,3.00
2018-01-06T04:54:03.831Z,3.40
2018-01-06T04:55:03.811Z,3.40
2018-01-06T04:56:03.780Z,3.60
2018-01-06T04:57:03.827Z,3.10
2018-01-06T04:58:03.726Z,3.30
2018-01-06T04:59:03.738Z,3.20
2018-01-06T05:00:03.673Z,3.30
2018-01-06T05:01:03.748Z,3.40
2018-01-06T05:02:03.626Z,2.80
2018-01-06T05:03:04.684Z,3.40
2018-01-06T05:04:03.567Z,3.50
2018-01-06T05:05:03.545Z,3.20
2018-01-06T05:06:03.521Z,3.50
2018-01-06T05:07:03.582Z,3.10
2018-01-06T05:08:03.465Z,3.50
2018-01-06T05:09:03.492Z,3.20
2018-01-06T05:10:03.423Z,3.00
2018-01-06T05:11:03.383Z,3.30
2018-01-06T05:12:03.417Z,3.50
2018-01-06T05:13:03.333Z,3.40
2018-01-06T05:14:03.425Z,3.70
2018-01-06T05:15:03.281Z,3.10
2018-01-06T05:16:03.334Z,3.30
2018-01-06T05:17:03.233Z,3.40
2018-01-06T05:18:03.240Z,3.70
2018-01-06T05:19:03.179Z,3.20
2018-01-06T05:20:03.256Z,3.20
2018-01-06T05:21:03.125Z,3.40
2018-01-06T05:22:03.161Z,3.00
2018-01-06T05:23:03.074Z,3.10
2018-01-06T05:24:03.072Z,3.30
2018-01-06T05:25:03.025Z,3.50
2018-01-06T05:26:02.996Z,3.30
2018-01-06T05:27:02.961Z,3.10
2018-01-06T05:28:02.993Z,3.50
2018-01-06T05:29:02.913Z,3.10
2018-01-06T05:30:02.904Z,3.30
2018-01-06T05:31:02.863Z,3.30
2018-01-06T05:32:02.836Z,3.40
2018-01-06T05:33:02.922Z,3.50
2018-01-06T05:34:02.780Z,3.60
2018-01-06T05:35:02.837Z,3.20
2018-01-06T05:36:02.729Z,3.50
2018-01-06T05:37:02.755Z,3.50
2018-01-06T05:38:02.679Z,3.50
2018-01-06T05:39:02.754Z,3.60
2018-01-06T05:40:02.625Z,3.50
2018-01-06T05:41:02.668Z,3.70
2018-01-06T05:42:02.577Z,3.10
2018-01-06T05:43:02.572Z,3.90
2018-01-06T05:44:02.515Z,3.60
2018-01-06T05:45:02.586Z,3.50
2018-01-06T05:46:02.464Z,3.70
2018-01-06T05:47:02.496Z,3.40
2018-01-06T05:48:02.410Z,3.30
2018-01-06T05:49:02.393Z,3.30
2018-01-06T05:50:02.409Z,3.50
2018-01-06T05:51:02.337Z,3.40
2018-01-06T05:52:02.320Z,3.50
2018-01-06T05:53:02.283Z,3.80
2018-01-06T05:54:02.334Z,3.70
2018-01-06T05:55:02.252Z,3.50
2018-01-06T05:56:02.244Z,3.70
2018-01-06T05:57:02.178Z,3.50
2018-01-06T05:58:02.257Z,3.70
2018-01-06T05:59:02.124Z,3.30
2018-01-06T06:00:02.103Z,3.60
2018-01-06T06:01:02.077Z,3.30
2018-01-06T06:02:02.072Z,3.20
2018-01-06T06:03:02.018Z,3.60
2018-01-06T06:04:02.089Z,3.70
2018-01-06T06:05:01.970Z,3.60
2018-01-06T06:06:02.003Z,3.30
2018-01-06T06:07:01.915Z,3.60
2018-01-06T06:08:01.910Z,4.00
2018-01-06T06:09:01.864Z,3.50
2018-01-06T06:10:01.840Z,3.60
2018-01-06T06:11:01.811Z,4.00
2018-01-06T06:12:01.832Z,3.20
2018-01-06T06:13:01.753Z,3.30
2018-01-06T06:14:01.842Z,3.70
2018-01-06T06:15:01.707Z,3.60
2018-01-06T06:16:01.679Z,3.70
2018-01-06T06:17:01.758Z,3.70
2018-01-06T06:18:01.630Z,3.20
2018-01-06T06:19:01.667Z,3.50
2018-01-06T06:20:01.573Z,3.40
2018-01-06T06:21:01.583Z,3.40
2018-01-06T06:22:01.523Z,3.60
2018-01-06T06:23:01.588Z,3.50
2018-01-06T06:24:01.468Z,3.60
2018-01-06T06:25:01.501Z,3.30
2018-01-06T06:26:01.520Z,3.40
2018-01-06T06:27:01.388Z,3.40
2018-01-06T06:28:01.416Z,3.40
2018-01-06T06:29:01.338Z,3.40
2018-01-06T06:30:01.428Z,3.40
2018-01-06T06:31:01.283Z,3.70
2018-01-06T06:32:01.262Z,3.50
2018-01-06T06:33:01.344Z,3.70
2018-01-06T06:34:01.209Z,3.30
2018-01-06T06:35:01.253Z,3.30
2018-01-06T06:36:01.158Z,3.40
2018-01-06T06:37:01.163Z,3.50
2018-01-06T06:38:01.103Z,3.70
2018-01-06T06:39:01.176Z,3.40
2018-01-06T06:40:01.058Z,3.50
2018-01-06T06:41:01.086Z,3.80
2018-01-06T06:42:01.005Z,3.60
2018-01-06T06:43:00.979Z,3.50
2018-01-06T06:44:00.951Z,3.20
2018-01-06T06:45:00.925Z,3.80
2018-01-06T06:46:00.894Z,3.90
2018-01-06T06:47:00.873Z,3.70
2018-01-06T06:48:00.841Z,3.40
2018-01-06T06:49:00.828Z,3.70
2018-01-06T06:50:00.795Z,3.40
2018-01-06T06:51:00.774Z,3.70
2018-01-06T06:52:00.743Z,3.70
2018-01-06T06:53:00.752Z,3.60
2018-01-06T06:54:00.739Z,3.30
2018-01-06T06:55:00.666Z,3.70
2018-01-06T06:56:00.634Z,4.00
2018-01-06T06:57:00.610Z,3.60
2018-01-06T06:58:00.587Z,3.70
2018-01-06T06:59:00.555Z,4.00
2018-01-06T07:00:00.588Z,4.00
2018-01-06T07:01:01.306Z,4.00
2018-01-06T07:02:00.476Z,3.80
2018-01-06T07:03:00.459Z,3.90
2018-01-06T07:04:00.446Z,3.70
2018-01-06T07:05:00.405Z,3.70
2018-01-06T07:06:00.375Z,3.60
2018-01-06T07:07:00.346Z,3.50
2018-01-06T07:08:00.331Z,3.50
2018-01-06T07:09:00.296Z,3.70
2018-01-06T07:10:00.287Z,3.70
2018-01-06T07:11:00.244Z,3.90
2018-01-06T07:12:00.225Z,3.70
2018-01-06T07:13:00.197Z,3.90
2018-01-06T07:14:00.162Z,3.60
2018-01-06T07:15:00.169Z,4.10
2018-01-06T07:16:00.120Z,3.90
2018-01-06T07:17:00.087Z,4.20
2018-01-06T07:18:00.084Z,3.50
2018-01-06T07:19:00.040Z,3.70
2018-01-06T07:20:00.012Z,3.90
2018-01-06T07:20:59.981Z,4.20
2018-01-06T07:21:59.962Z,3.90
2018-01-06T07:22:59.932Z,4.00
2018-01-06T07:23:59.899Z,4.10
2018-01-06T07:24:59.880Z,4.00
2018-01-06T07:25:59.850Z,4.00
2018-01-06T07:26:59.820Z,4.20
2018-01-06T07:27:59.800Z,4.00
2018-01-06T07:28:59.778Z,4.30
2018-01-06T07:29:59.748Z,3.90
2018-01-06T07:30:59.716Z,4.00
2018-01-06T07:31:59.696Z,3.90
2018-01-06T07:32:59.669Z,4.20
2018-01-06T07:33:59.642Z,4.40
2018-01-06T07:34:59.618Z,4.00
2018-01-06T07:35:59.588Z,4.40
2018-01-06T07:36:59.568Z,4.10
2018-01-06T07:37:59.533Z,4.00
2018-01-06T07:38:59.512Z,3.90
2018-01-06T07:40:00.303Z,4.30
2018-01-06T07:40:59.451Z,4.40
2018-01-06T07:42:00.307Z,4.40
2018-01-06T07:42:59.421Z,4.90
2018-01-06T07:43:59.377Z,4.60
2018-01-06T07:44:59.369Z,4.50
2018-01-06T07:45:59.335Z,4.70
2018-01-06T07:46:59.300Z,4.40
2018-01-06T07:47:59.281Z,4.10
2018-01-06T07:48:59.353Z,4.80
2018-01-06T07:49:59.229Z,4.50
2018-01-06T07:50:59.206Z,4.60
2018-01-06T07:51:59.270Z,5.20
2018-01-06T07:52:59.145Z,4.50
2018-01-06T07:53:59.122Z,4.60
2018-01-06T07:54:59.088Z,4.40
2018-01-06T07:55:59.069Z,4.40
2018-01-06T07:56:59.036Z,4.90
2018-01-06T07:57:59.805Z,4.50
2018-01-06T07:58:58.983Z,4.60
2018-01-06T07:59:58.964Z,4.60
2018-01-06T08:00:58.937Z,4.60
2018-01-06T08:01:58.906Z,5.10
2018-01-06T08:02:58.884Z,4.90
2018-01-06T08:03:58.853Z,4.90
2018-01-06T08:04:58.829Z,4.70
2018-01-06T08:05:58.841Z,5.10
2018-01-06T08:06:58.776Z,4.80
2018-01-06T08:07:58.762Z,5.20
2018-01-06T08:08:58.760Z,5.00
2018-01-06T08:09:58.694Z,4.90
2018-01-06T08:10:58.671Z,4.90
2018-01-06T08:11:59.304Z,5.10
2018-01-06T08:12:58.619Z,4.90
2018-01-06T08:13:59.304Z,5.40
2018-01-06T08:14:58.565Z,5.30
2018-01-06T08:15:58.597Z,5.30
2018-01-06T08:16:58.519Z,5.80
2018-01-06T08:17:59.310Z,5.70
2018-01-06T08:18:58.475Z,5.50
2018-01-06T08:19:58.434Z,5.20
2018-01-06T08:20:58.407Z,5.70
2018-01-06T08:21:58.405Z,5.50
2018-01-06T08:22:58.458Z,5.70
2018-01-06T08:23:58.329Z,5.30
2018-01-06T08:24:58.346Z,6.00
2018-01-06T08:25:58.282Z,5.40
2018-01-06T08:26:58.356Z,5.40
2018-01-06T08:27:58.224Z,5.60
2018-01-06T08:28:58.205Z,5.40
2018-01-06T08:29:58.175Z,5.60
2018-01-06T08:30:58.150Z,5.50
2018-01-06T08:31:58.121Z,5.40
2018-01-06T08:32:58.104Z,5.40
2018-01-06T08:33:58.077Z,5.50
2018-01-06T08:34:58.101Z,5.80
2018-01-06T08:35:58.125Z,5.40
2018-01-06T08:36:57.990Z,5.50
2018-01-06T08:37:58.014Z,5.90
2018-01-06T08:38:57.940Z,5.40
2018-01-06T08:39:57.928Z,5.40
2018-01-06T08:40:57.885Z,5.40
2018-01-06T08:41:57.857Z,5.40
2018-01-06T08:42:57.946Z,5.70
2018-01-06T08:43:57.802Z,5.70
2018-01-06T08:44:57.856Z,5.60
2018-01-06T08:45:57.755Z,6.00
2018-01-06T08:46:57.763Z,5.80
2018-01-06T08:47:57.702Z,6.10
2018-01-06T08:48:57.776Z,5.80
2018-01-06T08:49:57.651Z,6.10
2018-01-06T08:50:57.798Z,5.70
2018-01-06T08:51:57.618Z,5.50
2018-01-06T08:52:57.568Z,5.70
2018-01-06T08:53:57.546Z,5.90
2018-01-06T08:54:57.607Z,6.00
2018-01-06T08:55:57.493Z,6.00
2018-01-06T08:56:57.516Z,6.10
2018-01-06T08:57:57.443Z,6.30
2018-01-06T08:58:57.530Z,5.70
2018-01-06T08:59:57.393Z,5.90
2018-01-06T09:00:57.442Z,6.00
2018-01-06T09:01:57.335Z,6.20
2018-01-06T09:02:57.309Z,6.00
2018-01-06T09:03:57.290Z,6.10
2018-01-06T09:04:57.364Z,6.50
2018-01-06T09:05:57.249Z,6.50
2018-01-06T09:06:57.277Z,6.30
2018-01-06T09:07:57.181Z,6.30
2018-01-06T09:08:57.285Z,6.40
2018-01-06T09:09:57.125Z,6.10
2018-01-06T09:10:57.201Z,6.30
2018-01-06T09:11:57.675Z,6.10
2018-01-06T09:12:57.058Z,5.50
2018-01-06T09:13:57.028Z,5.60
2018-01-06T09:14:57.017Z,5.70
2018-01-06T09:15:56.977Z,5.60
2018-01-06T09:16:57.037Z,6.00
2018-01-06T09:17:56.926Z,5.40
2018-01-06T09:18:56.935Z,5.20
2018-01-06T09:19:56.871Z,6.00
2018-01-06T09:20:56.950Z,5.60
2018-01-06T09:21:56.819Z,5.20
2018-01-06T09:22:56.857Z,4.90
2018-01-06T09:23:56.864Z,5.10
2018-01-06T09:24:56.740Z,5.20
2018-01-06T09:25:56.777Z,5.80
2018-01-06T09:26:56.688Z,5.40
2018-01-06T09:27:56.684Z,6.10
2018-01-06T09:28:56.632Z,5.90
2018-01-06T09:29:56.698Z,5.80
2018-01-06T09:30:56.589Z,5.30
2018-01-06T09:31:56.605Z,5.80
2018-01-06T09:32:56.536Z,5.70
2018-01-06T09:33:56.618Z,5.80
2018-01-06T09:34:56.482Z,6.20
2018-01-06T09:35:56.456Z,5.90
2018-01-06T09:36:56.478Z,6.20
2018-01-06T09:37:56.438Z,6.50
2018-01-06T09:38:56.380Z,6.20
2018-01-06T09:39:56.450Z,6.10
2018-01-06T09:40:56.353Z,6.30
2018-01-06T09:41:56.296Z,6.40
2018-01-06T09:42:56.369Z,6.10
2018-01-06T09:43:56.247Z,5.90
2018-01-06T09:44:56.276Z,5.90
2018-01-06T09:45:56.199Z,5.80
2018-01-06T09:46:56.184Z,6.10
2018-01-06T09:47:56.149Z,5.50
2018-01-06T09:48:56.196Z,5.70
2018-01-06T09:49:56.100Z,6.10
2018-01-06T09:50:56.109Z,5.60
2018-01-06T09:51:56.042Z,6.40
2018-01-06T09:52:56.125Z,6.60
2018-01-06T09:53:55.993Z,6.20
2018-01-06T09:54:56.033Z,6.40
2018-01-06T09:55:55.942Z,6.90
2018-01-06T09:56:55.939Z,6.60
2018-01-06T09:57:55.893Z,6.50
2018-01-06T09:58:55.953Z,6.40
2018-01-06T09:59:55.841Z,6.00
2018-01-06T10:00:55.871Z,5.90
2018-01-06T10:01:55.785Z,5.90
2018-01-06T10:02:55.768Z,6.10
2018-01-06T10:03:55.782Z,6.80
2018-01-06T10:04:55.707Z,7.20
2018-01-06T10:05:56.001Z,6.70
2018-01-06T10:06:55.657Z,6.60
2018-01-06T10:07:55.687Z,6.50
2018-01-06T10:08:55.606Z,6.70
2018-01-06T10:09:55.610Z,7.30
2018-01-06T10:10:55.556Z,6.90
2018-01-06T10:11:55.629Z,7.60
2018-01-06T10:12:55.506Z,8.10
2018-01-06T10:13:55.538Z,8.00
2018-01-06T10:14:55.460Z,8.10
2018-01-06T10:15:55.445Z,7.70
2018-01-06T10:16:55.402Z,8.40
2018-01-06T10:17:55.416Z,8.00
2018-01-06T10:18:55.463Z,8.30
2018-01-06T10:19:55.325Z,7.90
2018-01-06T10:20:55.381Z,8.20
2018-01-06T10:21:55.280Z,7.80
2018-01-06T10:22:55.253Z,7.50
2018-01-06T10:23:55.227Z,7.60
2018-01-06T10:24:55.221Z,7.80
2018-01-06T10:25:55.176Z,7.40
2018-01-06T10:26:55.209Z,7.10
2018-01-06T10:27:55.121Z,6.90
2018-01-06T10:28:55.216Z,7.60
2018-01-06T10:29:55.073Z,7.10
2018-01-06T10:30:55.132Z,6.80
2018-01-06T10:31:55.046Z,7.20
2018-01-06T10:32:55.015Z,6.90
2018-01-06T10:33:54.982Z,6.30
2018-01-06T10:34:55.049Z,6.70
2018-01-06T10:35:54.925Z,6.40
2018-01-06T10:36:54.959Z,6.60
2018-01-06T10:37:54.874Z,7.00
2018-01-06T10:38:54.867Z,6.90
2018-01-06T10:39:54.826Z,6.10
2018-01-06T10:40:54.878Z,6.30
2018-01-06T10:41:54.779Z,6.70
2018-01-06T10:42:54.792Z,6.40
2018-01-06T10:43:54.726Z,6.90
2018-01-06T10:44:54.810Z,6.80
2018-01-06T10:45:54.673Z,6.60
2018-01-06T10:46:54.713Z,6.70
2018-01-06T10:47:54.622Z,7.00
2018-01-06T10:48:54.594Z,6.70
2018-01-06T10:49:54.570Z,7.10
2018-01-06T10:50:54.638Z,6.50
2018-01-06T10:51:54.519Z,6.50
2018-01-06T10:52:54.544Z,6.50
2018-01-06T10:53:54.477Z,6.40
2018-01-06T10:54:54.457Z,6.50
2018-01-06T10:55:54.425Z,6.20
2018-01-06T10:56:54.467Z,6.10
2018-01-06T10:57:54.376Z,6.10
2018-01-06T10:58:54.377Z,5.70
2018-01-06T10:59:54.320Z,6.20
2018-01-06T11:00:54.302Z,6.00
2018-01-06T11:01:54.299Z,5.90
2018-01-06T11:02:54.266Z,5.70
2018-01-06T11:03:54.335Z,6.50
2018-01-06T11:04:54.194Z,6.40
2018-01-06T11:05:54.211Z,6.00
2018-01-06T11:06:54.147Z,6.20
2018-01-06T11:07:54.228Z,6.10
2018-01-06T11:08:54.096Z,6.20
2018-01-06T11:09:54.137Z,5.70
2018-01-06T11:10:54.046Z,6.20
2018-01-06T11:11:54.047Z,6.30
2018-01-06T11:12:54.000Z,6.20
2018-01-06T11:13:54.057Z,5.90
2018-01-06T11:14:53.963Z,5.80
2018-01-06T11:15:53.968Z,6.40
2018-01-06T11:16:53.905Z,6.00
2018-01-06T11:17:53.983Z,5.70
2018-01-06T11:18:53.850Z,6.10
2018-01-06T11:19:53.894Z,5.80
2018-01-06T11:20:53.798Z,6.40
2018-01-06T11:21:53.802Z,5.70
2018-01-06T11:22:53.752Z,5.70
2018-01-06T11:23:53.728Z,6.30
2018-01-06T11:24:53.701Z,6.30
2018-01-06T11:25:53.724Z,6.40
2018-01-06T11:26:53.653Z,6.50
2018-01-06T11:27:53.748Z,6.30
2018-01-06T11:28:53.605Z,6.50
2018-01-06T11:29:53.584Z,6.20
2018-01-06T11:30:53.663Z,6.40
2018-01-06T11:31:53.528Z,6.20
2018-01-06T11:32:53.561Z,6.40
2018-01-06T11:33:53.483Z,6.80
2018-01-06T11:34:53.450Z,6.70
2018-01-06T11:35:53.495Z,7.40
2018-01-06T11:36:53.482Z,7.00
2018-01-06T11:37:53.377Z,7.70
2018-01-06T11:38:53.394Z,7.50
2018-01-06T11:39:53.332Z,7.00
2018-01-06T11:40:53.308Z,7.50
2018-01-06T11:41:53.309Z,7.80
2018-01-06T11:42:53.252Z,7.80
2018-01-06T11:43:53.323Z,7.70
2018-01-06T11:44:53.208Z,8.10
2018-01-06T11:45:53.181Z,7.80
2018-01-06T11:46:53.155Z,7.40
2018-01-06T11:47:53.243Z,7.60
2018-01-06T11:48:53.116Z,7.20
2018-01-06T11:49:53.155Z,7.80
2018-01-06T11:50:53.058Z,7.20
2018-01-06T11:51:53.066Z,7.30
2018-01-06T11:52:53.010Z,6.90
2018-01-06T11:53:52.983Z,6.70
2018-01-06T11:54:52.959Z,6.80
2018-01-06T11:55:52.987Z,6.80
2018-01-06T11:56:52.906Z,6.40
2018-01-06T11:57:53.003Z,6.80
2018-01-06T11:58:52.900Z,7.10
2018-01-06T11:59:52.832Z,7.50
2018-01-06T12:00:52.914Z,7.10
2018-01-06T12:01:52.791Z,7.10
2018-01-06T12:02:52.824Z,7.00
2018-01-06T12:03:52.738Z,7.20
2018-01-06T12:04:52.710Z,7.20
2018-01-06T12:05:52.741Z,7.10
2018-01-06T12:06:52.668Z,7.40
2018-01-06T12:07:52.751Z,6.80
2018-01-06T12:08:52.610Z,7.00
2018-01-06T12:09:52.597Z,7.10
2018-01-06T12:10:52.567Z,6.90
2018-01-06T12:11:52.570Z,7.10
2018-01-06T12:12:52.517Z,7.20
2018-01-06T12:13:52.589Z,7.60
2018-01-06T12:14:52.468Z,7.20
2018-01-06T12:15:52.446Z,7.10
2018-01-06T12:16:52.502Z,6.90
2018-01-06T12:17:52.391Z,7.20
2018-01-06T12:18:52.411Z,6.70
2018-01-06T12:19:52.347Z,6.20
2018-01-06T12:20:52.323Z,6.80
2018-01-06T12:21:52.290Z,6.30
2018-01-06T12:22:52.335Z,5.70
2018-01-06T12:23:52.244Z,6.50
2018-01-06T12:24:52.246Z,5.90
2018-01-06T12:25:52.199Z,5.90
2018-01-06T12:26:52.255Z,6.00
2018-01-06T12:27:52.145Z,6.40
2018-01-06T12:28:52.177Z,6.50
2018-01-06T12:29:52.100Z,7.20
2018-01-06T12:30:52.070Z,7.10
2018-01-06T12:31:52.081Z,6.70
2018-01-06T12:32:52.026Z,7.10
2018-01-06T12:33:52.096Z,7.00
2018-01-06T12:34:51.972Z,7.30
2018-01-06T12:35:51.956Z,6.20
2018-01-06T12:36:51.925Z,6.60
2018-01-06T12:37:52.015Z,7.00
2018-01-06T12:38:51.877Z,6.90
2018-01-06T12:39:51.930Z,7.30
2018-01-06T12:40:51.826Z,7.00
2018-01-06T12:41:51.840Z,7.00
2018-01-06T12:42:51.777Z,7.10
2018-01-06T12:43:51.848Z,7.20
2018-01-06T12:44:51.732Z,7.10
2018-01-06T12:45:51.760Z,7.10
2018-01-06T12:46:51.682Z,7.40
2018-01-06T12:47:51.768Z,7.60
2018-01-06T12:48:51.633Z,8.10
2018-01-06T12:49:51.682Z,8.30
2018-01-06T12:50:51.584Z,8.20
2018-01-06T12:51:51.560Z,8.70
2018-01-06T12:52:51.600Z,8.50
2018-01-06T12:53:51.513Z,8.70
2018-01-06T12:54:51.508Z,9.30
2018-01-06T12:55:51.463Z,8.90
2018-01-06T12:56:51.432Z,8.80
2018-01-06T12:57:51.413Z,9.00
2018-01-06T12:58:51.428Z,8.80
2018-01-06T12:59:51.360Z,8.40
2018-01-06T13:00:51.442Z,8.20
2018-01-06T13:01:51.316Z,8.40
2018-01-06T13:02:51.350Z,8.70
2018-01-06T13:03:51.267Z,8.70
2018-01-06T13:04:51.261Z,8.40
2018-01-06T13:05:51.215Z,8.40
2018-01-06T13:06:51.272Z,8.70
2018-01-06T13:07:51.164Z,8.50
2018-01-06T13:08:51.189Z,8.30
2018-01-06T13:09:51.119Z,8.30
2018-01-06T13:10:51.195Z,8.20
2018-01-06T13:11:51.068Z,8.30
2018-01-06T13:12:52.128Z,8.60
2018-01-06T13:13:51.017Z,7.80
2018-01-06T13:14:51.017Z,8.00
2018-01-06T13:15:50.973Z,7.70
2018-01-06T13:16:51.029Z,7.80
2018-01-06T13:17:50.917Z,7.70